Time;durP1;ratioP1;P1;durP2;ratioP2;P2;SDS_P1;SDS_P2;PMS_P1;PMS_P2;Temp;Humidity;BMP_temperature;BMP_pressure;BME280_temperature;BME280_humidity;BME280_pressure;Samples;Min_cycle;Max_cycle;Signal;HPM_P1;HPM_P2
2021/12/29 00:01:46;;;;;;;4.15;2.20;;;9.70;99.90;;;;;;4156530;28;20057;-68
2021/12/29 00:03:47;;;;;;;2.47;1.90;;;9.60;99.90;;;;;;4160279;28;20045;-68
2021/12/29 00:05:47;;;;;;;4.68;2.40;;;9.60;99.90;;;;;;4158000;28;20068;-68
2021/12/29 00:07:48;;;;;;;4.53;2.58;;;9.60;99.90;;;;;;4161978;28;20366;-68
2021/12/29 00:09:50;;;;;;;2.38;2.13;;;9.60;99.90;;;;;;4163243;28;20052;-68
2021/12/29 00:11:51;;;;;;;4.90;2.28;;;9.70;99.90;;;;;;4148584;28;20038;-68
2021/12/29 00:13:52;;;;;;;2.88;2.05;;;9.60;99.90;;;;;;4153323;28;20440;-68
2021/12/29 00:15:57;;;;;;;5.13;2.35;;;9.70;99.90;;;;;;4148377;28;20049;-67
2021/12/29 00:17:58;;;;;;;6.03;2.92;;;9.70;99.90;;;;;;4151971;28;20045;-68
2021/12/29 00:19:59;;;;;;;4.70;2.50;;;9.70;99.90;;;;;;4156570;28;20483;-68
2021/12/29 00:21:59;;;;;;;6.13;2.25;;;9.70;99.90;;;;;;4163102;28;20041;-68
2021/12/29 00:24:02;;;;;;;4.45;2.70;;;9.70;99.90;;;;;;4151939;28;20077;-68
2021/12/29 00:26:03;;;;;;;7.03;2.78;;;9.70;99.90;;;;;;4155621;28;20072;-68
2021/12/29 00:28:04;;;;;;;4.15;2.78;;;9.70;99.90;;;;;;4160530;28;20045;-68
2021/12/29 00:30:07;;;;;;;6.97;3.00;;;9.70;99.90;;;;;;4156458;28;20392;-69
2021/12/29 00:32:08;;;;;;;4.18;2.63;;;9.70;99.90;;;;;;4158282;28;20121;-68
2021/12/29 00:34:09;;;;;;;3.42;2.53;;;9.70;99.90;;;;;;4158161;28;20388;-67
2021/12/29 00:36:09;;;;;;;3.80;2.80;;;9.70;99.90;;;;;;4166097;28;20051;-67
2021/12/29 00:38:10;;;;;;;4.03;2.80;;;9.70;99.90;;;;;;4167100;28;20037;-67
2021/12/29 00:40:12;;;;;;;5.68;2.90;;;9.70;99.90;;;;;;4161661;28;20168;-68
2021/12/29 00:42:13;;;;;;;3.35;2.35;;;9.70;99.90;;;;;;4156319;28;20457;-67
2021/12/29 00:44:13;;;;;;;4.05;2.67;;;9.70;99.90;;;;;;4156260;28;20104;-67
2021/12/29 00:46:17;;;;;;;3.50;2.53;;;9.60;99.90;;;;;;4166014;28;20041;-68
2021/12/29 00:48:19;;;;;;;5.40;2.90;;;9.70;99.90;;;;;;4166033;28;20041;-68
2021/12/29 00:50:20;;;;;;;4.27;2.87;;;9.70;99.90;;;;;;4164203;28;20037;-68
2021/12/29 00:52:20;;;;;;;6.75;3.08;;;9.60;99.90;;;;;;4151067;28;20269;-68
2021/12/29 00:54:21;;;;;;;4.20;3.17;;;9.60;99.90;;;;;;4151025;28;20045;-67
2021/12/29 00:56:21;;;;;;;7.95;3.03;;;9.60;99.90;;;;;;4158763;28;20038;-67
2021/12/29 00:58:22;;;;;;;4.25;2.40;;;9.60;99.90;;;;;;4165883;28;20037;-68
2021/12/29 01:00:25;;;;;;;3.85;2.63;;;9.60;99.90;;;;;;4162881;28;20041;-68
2021/12/29 01:02:26;;;;;;;3.67;2.40;;;9.60;99.90;;;;;;4166460;28;20079;-67
2021/12/29 01:04:26;;;;;;;5.25;2.65;;;9.60;99.90;;;;;;4166345;28;20042;-68
2021/12/29 01:06:27;;;;;;;4.93;3.05;;;9.60;99.90;;;;;;4164211;28;20570;-68
2021/12/29 01:08:28;;;;;;;7.35;3.15;;;9.70;99.90;;;;;;4153180;28;20038;-69
2021/12/29 01:10:28;;;;;;;3.60;2.75;;;9.70;99.90;;;;;;4154651;28;20037;-68
2021/12/29 01:12:29;;;;;;;6.45;3.25;;;9.60;99.90;;;;;;4162696;28;20477;-68
2021/12/29 01:14:30;;;;;;;4.90;2.97;;;9.70;99.90;;;;;;4156975;28;20046;-68
2021/12/29 01:18:38;;;;;;;4.50;2.92;;;9.70;99.90;;;;;;4165246;28;20087;-68
2021/12/29 01:20:39;;;;;;;3.35;2.95;;;9.70;99.90;;;;;;4158049;28;20108;-68
2021/12/29 01:22:40;;;;;;;3.20;2.90;;;9.70;99.90;;;;;;4165531;28;20447;-68
2021/12/29 01:24:42;;;;;;;4.45;3.45;;;9.70;99.90;;;;;;4156659;28;20030;-68
2021/12/29 01:26:43;;;;;;;4.00;3.10;;;9.70;99.90;;;;;;4161370;28;20117;-68
2021/12/29 01:28:44;;;;;;;4.00;3.25;;;9.70;99.90;;;;;;4150359;28;20038;-67
2021/12/29 01:30:45;;;;;;;3.20;2.83;;;9.70;99.90;;;;;;4162127;28;20109;-67
2021/12/29 01:32:46;;;;;;;6.22;4.10;;;9.70;99.90;;;;;;4161506;28;20037;-68
2021/12/29 01:34:46;;;;;;;4.63;3.28;;;9.70;99.90;;;;;;4165886;28;20124;-67
2021/12/29 01:36:47;;;;;;;5.25;3.20;;;9.70;99.90;;;;;;4156922;28;20050;-67
2021/12/29 01:38:48;;;;;;;6.07;3.70;;;9.70;99.90;;;;;;4159087;28;20100;-68
2021/12/29 01:40:49;;;;;;;5.38;4.38;;;9.70;99.90;;;;;;4164501;28;20041;-68
2021/12/29 01:42:50;;;;;;;3.80;3.42;;;9.70;99.90;;;;;;4165254;28;20052;-67
2021/12/29 01:44:50;;;;;;;5.65;3.85;;;9.70;99.90;;;;;;4157781;28;20037;-68
2021/12/29 01:46:53;;;;;;;4.78;3.55;;;9.70;99.90;;;;;;4162664;28;20125;-68
2021/12/29 01:48:54;;;;;;;4.30;3.50;;;9.70;99.90;;;;;;4157983;28;20045;-67
2021/12/29 01:50:56;;;;;;;5.78;4.30;;;9.70;99.90;;;;;;4161106;28;20034;-68
2021/12/29 01:53:02;;;;;;;5.75;3.83;;;9.70;99.90;;;;;;4162389;28;20044;-67
2021/12/29 01:55:13;;;;;;;4.95;3.80;;;9.70;99.90;;;;;;4163498;28;20465;-69
2021/12/29 01:57:13;;;;;;;5.82;3.30;;;9.70;99.90;;;;;;4158815;28;20054;-68
2021/12/29 01:59:15;;;;;;;8.13;3.78;;;9.70;99.90;;;;;;4163422;28;20038;-68
2021/12/29 02:01:15;;;;;;;4.93;3.67;;;9.70;99.90;;;;;;4151192;28;20034;-67
2021/12/29 02:03:16;;;;;;;6.03;4.05;;;9.70;99.90;;;;;;4150429;28;20046;-67
2021/12/29 02:05:17;;;;;;;5.90;4.10;;;9.70;99.90;;;;;;4161619;28;20476;-68
2021/12/29 02:07:18;;;;;;;8.05;3.60;;;9.60;99.90;;;;;;4149435;28;20104;-68
2021/12/29 02:09:18;;;;;;;6.78;3.85;;;9.60;99.90;;;;;;4155026;28;20125;-67
2021/12/29 02:11:28;;;;;;;6.82;4.10;;;9.60;99.90;;;;;;4160646;28;20034;-67
2021/12/29 02:13:29;;;;;;;6.03;3.92;;;9.60;99.90;;;;;;4155906;28;20507;-68
2021/12/29 02:15:29;;;;;;;4.88;3.70;;;9.60;99.90;;;;;;4156327;28;20041;-68
2021/12/29 02:17:30;;;;;;;7.65;4.25;;;9.70;99.90;;;;;;4160659;28;20551;-68
2021/12/29 02:19:31;;;;;;;6.93;4.10;;;9.60;99.90;;;;;;4155123;28;20037;-68
2021/12/29 02:21:32;;;;;;;6.88;3.90;;;9.60;99.90;;;;;;4147641;28;20038;-68
2021/12/29 02:23:47;;;;;;;5.15;4.13;;;9.60;99.90;;;;;;4164605;28;20128;-68
2021/12/29 02:25:51;;;;;;;5.82;4.32;;;9.60;99.90;;;;;;4162953;28;20033;-68
2021/12/29 02:27:55;;;;;;;6.32;4.22;;;9.70;99.90;;;;;;4160774;28;20095;-68
2021/12/29 02:29:55;;;;;;;6.75;4.28;;;9.70;99.90;;;;;;4165185;28;20045;-67
2021/12/29 02:31:56;;;;;;;4.30;3.72;;;9.70;99.90;;;;;;4164183;28;20045;-67
2021/12/29 02:33:58;;;;;;;4.88;4.18;;;9.70;99.90;;;;;;4164844;28;20099;-68
2021/12/29 02:36:00;;;;;;;7.80;3.85;;;9.70;99.90;;;;;;4162060;28;20034;-69
2021/12/29 02:38:02;;;;;;;4.30;3.25;;;9.70;99.90;;;;;;4161575;28;20465;-68
2021/12/29 02:40:05;;;;;;;5.95;3.75;;;9.70;99.90;;;;;;4164542;28;20033;-68
2021/12/29 02:42:07;;;;;;;5.82;4.15;;;9.70;99.90;;;;;;4164548;28;20489;-67
2021/12/29 02:44:10;;;;;;;4.97;3.73;;;9.70;99.90;;;;;;4164360;28;20045;-67
2021/12/29 02:46:16;;;;;;;5.05;3.60;;;9.70;99.90;;;;;;4163900;28;20469;-67
2021/12/29 02:48:18;;;;;;;5.57;3.60;;;9.70;99.90;;;;;;4164652;28;20033;-67
2021/12/29 02:50:18;;;;;;;4.47;3.87;;;9.70;99.90;;;;;;4151606;28;20073;-68
2021/12/29 02:52:19;;;;;;;4.07;3.67;;;9.70;99.90;;;;;;4157659;28;20105;-67
2021/12/29 02:54:20;;;;;;;5.22;4.68;;;9.80;99.90;;;;;;4164690;28;20041;-68
2021/12/29 02:56:23;;;;;;;4.65;4.07;;;9.80;99.90;;;;;;4163913;28;20034;-67
2021/12/29 02:58:24;;;;;;;5.53;4.32;;;9.80;99.90;;;;;;4164574;28;20068;-68
2021/12/29 03:00:25;;;;;;;6.50;4.35;;;9.80;99.90;;;;;;4163814;28;20730;-68
2021/12/29 03:02:25;;;;;;;5.72;4.25;;;9.80;99.90;;;;;;4164697;28;20025;-67
2021/12/29 03:04:26;;;;;;;5.40;4.28;;;9.80;99.90;;;;;;4159537;28;20045;-68
2021/12/29 03:06:27;;;;;;;4.80;4.32;;;9.80;99.90;;;;;;4150190;28;20066;-68
2021/12/29 03:08:28;;;;;;;5.07;4.38;;;9.70;99.90;;;;;;4161945;28;20037;-67
2021/12/29 03:10:28;;;;;;;4.65;4.20;;;9.70;99.90;;;;;;4155758;28;20128;-68
2021/12/29 03:12:29;;;;;;;5.28;4.40;;;9.70;99.90;;;;;;4155917;28;20033;-69
2021/12/29 03:14:30;;;;;;;4.57;4.07;;;9.70;99.90;;;;;;4162004;28;20127;-68
2021/12/29 03:16:33;;;;;;;7.65;4.65;;;9.80;99.90;;;;;;4159808;28;20465;-68
2021/12/29 03:18:34;;;;;;;5.45;4.75;;;9.70;99.90;;;;;;4159318;28;20037;-68
2021/12/29 03:20:34;;;;;;;6.97;3.80;;;9.80;99.90;;;;;;4162685;28;20571;-68
2021/12/29 03:22:35;;;;;;;4.78;3.88;;;9.80;99.90;;;;;;4156501;28;20068;-68
2021/12/29 03:24:35;;;;;;;8.95;4.63;;;9.80;99.90;;;;;;4164211;28;20057;-68
2021/12/29 03:26:36;;;;;;;4.72;4.22;;;9.80;99.90;;;;;;4160145;28;20461;-68
2021/12/29 03:28:38;;;;;;;6.90;4.22;;;9.80;99.90;;;;;;4161926;28;20042;-68
2021/12/29 03:30:43;;;;;;;6.95;4.30;;;9.80;99.90;;;;;;4162705;28;20038;-68
2021/12/29 03:32:51;;;;;;;8.02;4.28;;;9.80;99.90;;;;;;4157706;28;20053;-67
2021/12/29 03:34:52;;;;;;;7.45;4.20;;;9.80;99.90;;;;;;4159755;28;20485;-67
2021/12/29 03:36:52;;;;;;;7.65;4.65;;;9.80;99.90;;;;;;4150743;28;20047;-68
2021/12/29 03:38:53;;;;;;;6.38;4.80;;;9.80;99.90;;;;;;4155353;28;20042;-67
2021/12/29 03:40:55;;;;;;;5.28;4.35;;;9.80;99.90;;;;;;4152732;28;20034;-68
2021/12/29 03:42:56;;;;;;;8.90;4.55;;;9.80;99.90;;;;;;4149564;28;20041;-67
2021/12/29 03:44:57;;;;;;;7.78;4.82;;;9.80;99.90;;;;;;4157926;28;20125;-67
2021/12/29 03:46:57;;;;;;;5.07;4.50;;;9.80;99.90;;;;;;4160592;28;20410;-68
2021/12/29 03:48:58;;;;;;;6.32;5.00;;;9.80;99.90;;;;;;4149818;28;20466;-68
2021/12/29 03:51:00;;;;;;;7.70;4.93;;;9.80;99.90;;;;;;4156544;28;20060;-69
2021/12/29 03:53:01;;;;;;;6.35;5.00;;;9.80;99.90;;;;;;4164063;28;20120;-68
2021/12/29 03:55:02;;;;;;;6.53;5.22;;;9.80;99.90;;;;;;4163506;28;20030;-69
2021/12/29 03:57:03;;;;;;;7.65;4.65;;;9.80;99.90;;;;;;4161175;28;20083;-67
2021/12/29 03:59:04;;;;;;;6.93;4.47;;;9.80;99.90;;;;;;4147682;28;20435;-68
2021/12/29 04:01:10;;;;;;;5.93;4.38;;;9.80;99.90;;;;;;4160666;28;20045;-68
2021/12/29 04:03:11;;;;;;;5.97;4.70;;;9.80;99.90;;;;;;4155847;28;20045;-67
2021/12/29 04:05:15;;;;;;;9.32;4.80;;;9.80;99.90;;;;;;4155658;28;20060;-68
2021/12/29 04:07:16;;;;;;;7.63;4.75;;;9.80;99.90;;;;;;4163260;28;20120;-67
2021/12/29 04:09:16;;;;;;;5.43;4.63;;;9.80;99.90;;;;;;4163186;28;20496;-67
2021/12/29 04:11:18;;;;;;;5.00;4.20;;;9.80;99.90;;;;;;4161971;28;20037;-68
2021/12/29 04:13:19;;;;;;;10.48;5.05;;;9.80;99.90;;;;;;4147315;28;20054;-68
2021/12/29 04:15:20;;;;;;;7.13;4.50;;;9.80;99.90;;;;;;4161456;28;20032;-68
2021/12/29 04:17:26;;;;;;;9.48;5.25;;;9.80;99.90;;;;;;4149047;28;20041;-68
2021/12/29 04:19:39;;;;;;;5.97;4.57;;;9.70;99.90;;;;;;4159683;28;20057;-67
2021/12/29 04:21:43;;;;;;;4.97;4.07;;;9.70;99.90;;;;;;4139076;28;20065;-68
2021/12/29 04:23:44;;;;;;;6.75;4.32;;;9.80;99.90;;;;;;4148701;28;20050;-67
2021/12/29 04:25:49;;;;;;;6.45;4.30;;;9.70;99.90;;;;;;4155761;28;20034;-67
2021/12/29 04:27:56;;;;;;;8.48;4.68;;;9.70;99.90;;;;;;4164548;28;20042;-67
2021/12/29 04:29:56;;;;;;;4.57;3.88;;;9.70;99.90;;;;;;4162654;28;20033;-67
2021/12/29 04:31:57;;;;;;;4.70;3.70;;;9.70;99.90;;;;;;4162833;28;20080;-68
2021/12/29 04:33:57;;;;;;;4.32;3.70;;;9.70;99.90;;;;;;4163889;28;20404;-67
2021/12/29 04:35:58;;;;;;;5.13;3.67;;;9.70;99.90;;;;;;4161231;28;20029;-68
2021/12/29 04:37:59;;;;;;;8.05;4.50;;;9.70;99.90;;;;;;4146949;28;20065;-69
2021/12/29 04:39:59;;;;;;;5.70;4.38;;;9.70;99.90;;;;;;4147161;28;20481;-68
2021/12/29 04:42:00;;;;;;;4.80;4.13;;;9.70;99.90;;;;;;4154288;28;20042;-68
2021/12/29 04:44:01;;;;;;;4.95;3.95;;;9.70;99.90;;;;;;4147239;28;20046;-68
2021/12/29 04:46:01;;;;;;;4.35;3.95;;;9.70;99.90;;;;;;4152761;28;20038;-68
2021/12/29 04:48:10;;;;;;;5.07;3.95;;;9.70;99.90;;;;;;4152106;28;20030;-68
2021/12/29 04:50:28;;;;;;;4.57;3.92;;;9.80;99.90;;;;;;4146081;28;20038;-68
2021/12/29 04:52:30;;;;;;;5.00;4.50;;;9.80;99.90;;;;;;4146979;28;20034;-68
2021/12/29 04:54:31;;;;;;;5.03;4.20;;;9.70;99.90;;;;;;4147326;28;20060;-68
2021/12/29 04:56:33;;;;;;;5.60;4.40;;;9.70;99.90;;;;;;4155269;28;20034;-67
2021/12/29 04:58:33;;;;;;;6.10;4.32;;;9.70;99.90;;;;;;4163131;28;20487;-67
2021/12/29 05:00:34;;;;;;;5.35;4.30;;;9.70;99.90;;;;;;4162843;28;20061;-67
2021/12/29 05:02:35;;;;;;;6.18;4.18;;;9.70;99.90;;;;;;4163676;28;20405;-67
2021/12/29 05:04:45;;;;;;;5.95;4.80;;;9.70;99.90;;;;;;4162250;28;20183;-67
2021/12/29 05:09:05;;;;;;;5.05;4.38;;;9.70;99.90;;;;;;4163329;28;20117;-67
2021/12/29 05:11:09;;;;;;;5.78;4.20;;;9.70;99.90;;;;;;4162594;28;20500;-67
2021/12/29 05:13:10;;;;;;;5.68;5.07;;;9.70;99.90;;;;;;4156843;28;20068;-67
2021/12/29 05:15:10;;;;;;;5.35;4.80;;;9.70;99.90;;;;;;4162052;28;20041;-68
2021/12/29 05:17:11;;;;;;;7.20;4.95;;;9.70;99.90;;;;;;4162583;28;20495;-67
2021/12/29 05:19:11;;;;;;;5.18;4.53;;;9.70;99.90;;;;;;4162676;28;20038;-68
2021/12/29 05:21:12;;;;;;;6.78;5.38;;;9.70;99.90;;;;;;4149441;28;20116;-67
2021/12/29 05:23:13;;;;;;;7.93;5.85;;;9.70;99.90;;;;;;4157001;28;20050;-67
2021/12/29 05:25:13;;;;;;;7.22;5.50;;;9.70;99.90;;;;;;4157798;28;20088;-68
2021/12/29 05:27:14;;;;;;;7.97;5.97;;;9.70;99.90;;;;;;4166326;28;20117;-67
2021/12/29 05:29:15;;;;;;;8.10;6.68;;;9.70;99.90;;;;;;4165438;28;20053;-67
2021/12/29 05:31:15;;;;;;;9.43;6.90;;;9.70;99.90;;;;;;4162677;28;20116;-67
2021/12/29 05:33:16;;;;;;;9.50;6.85;;;9.70;99.90;;;;;;4153827;28;20137;-67
2021/12/29 05:35:17;;;;;;;9.95;7.40;;;9.60;99.90;;;;;;4155870;28;20084;-67
2021/12/29 05:37:18;;;;;;;12.57;7.85;;;9.60;99.90;;;;;;4166273;28;20392;-68
2021/12/29 05:39:19;;;;;;;9.68;7.38;;;9.70;99.90;;;;;;4166059;28;20473;-67
2021/12/29 05:41:21;;;;;;;9.80;7.10;;;9.70;99.90;;;;;;4165452;28;20056;-67
2021/12/29 05:43:22;;;;;;;9.65;7.63;;;9.70;99.90;;;;;;4165886;28;20048;-67
2021/12/29 05:45:23;;;;;;;16.55;8.85;;;9.70;99.90;;;;;;4165541;28;20461;-68
2021/12/29 05:47:23;;;;;;;11.90;8.70;;;9.60;99.90;;;;;;4164133;28;20574;-69
2021/12/29 05:49:24;;;;;;;9.68;7.88;;;9.60;99.90;;;;;;4166035;28;20041;-67
2021/12/29 05:51:24;;;;;;;12.45;8.40;;;9.60;99.90;;;;;;4165296;28;20033;-68
2021/12/29 05:53:25;;;;;;;10.48;8.32;;;9.60;99.90;;;;;;4166319;28;20041;-68
2021/12/29 05:55:26;;;;;;;10.95;8.75;;;9.60;99.90;;;;;;4161578;28;20500;-67
2021/12/29 05:57:27;;;;;;;12.48;8.63;;;9.60;99.90;;;;;;4165604;28;20030;-68
2021/12/29 05:59:27;;;;;;;12.68;9.60;;;9.60;99.90;;;;;;4166137;28;20040;-68
2021/12/29 06:01:28;;;;;;;9.35;7.90;;;9.60;99.90;;;;;;4165598;28;20041;-68
2021/12/29 06:03:29;;;;;;;13.02;8.88;;;9.60;99.90;;;;;;4165562;28;20140;-68
2021/12/29 06:05:30;;;;;;;12.10;8.60;;;9.60;99.90;;;;;;4155663;28;20054;-69
2021/12/29 06:07:30;;;;;;;10.88;8.40;;;9.60;99.90;;;;;;4151993;28;20121;-68
2021/12/29 06:09:31;;;;;;;12.98;9.15;;;9.60;99.90;;;;;;4164278;28;20037;-68
2021/12/29 06:11:32;;;;;;;11.57;8.68;;;9.70;99.90;;;;;;4163714;28;20045;-68
2021/12/29 06:13:32;;;;;;;14.02;9.75;;;9.70;99.90;;;;;;4164956;28;20370;-68
2021/12/29 06:15:33;;;;;;;12.02;8.98;;;9.70;99.90;;;;;;4163964;28;20037;-68
2021/12/29 06:17:34;;;;;;;15.60;10.10;;;9.70;99.90;;;;;;4164391;28;20583;-68
2021/12/29 06:19:35;;;;;;;10.80;9.15;;;9.70;99.90;;;;;;4162366;28;20466;-68
2021/12/29 06:21:35;;;;;;;13.75;9.30;;;9.60;99.90;;;;;;4163758;28;20389;-67
2021/12/29 06:23:36;;;;;;;13.25;10.23;;;9.70;99.90;;;;;;4163816;28;20072;-68
2021/12/29 06:25:37;;;;;;;14.43;9.07;;;9.70;99.90;;;;;;4165065;28;20103;-68
2021/12/29 06:27:38;;;;;;;13.45;9.55;;;9.70;99.90;;;;;;4155055;28;20034;-68
2021/12/29 06:29:39;;;;;;;11.93;9.02;;;9.70;99.90;;;;;;4163517;28;20033;-67
2021/12/29 06:31:39;;;;;;;13.90;9.65;;;9.70;99.90;;;;;;4163534;28;20099;-68
2021/12/29 06:33:40;;;;;;;14.35;8.93;;;9.70;99.90;;;;;;4164423;28;20052;-68
2021/12/29 06:35:41;;;;;;;11.90;9.45;;;9.70;99.90;;;;;;4164346;28;20159;-67
2021/12/29 06:37:44;;;;;;;13.77;10.85;;;9.70;99.90;;;;;;4153137;28;20045;-68
2021/12/29 06:39:45;;;;;;;;;;;9.70;99.90;;;;;;4160219;28;21704;-67
2021/12/29 06:41:46;;;;;;;12.25;9.25;;;9.70;99.90;;;;;;4162301;28;19909;-67
2021/12/29 06:43:46;;;;;;;11.75;8.65;;;9.70;99.90;;;;;;4164260;28;20072;-68
2021/12/29 06:45:47;;;;;;;12.15;8.88;;;9.70;99.90;;;;;;4161591;28;20485;-67
2021/12/29 06:47:47;;;;;;;12.85;10.10;;;9.70;99.90;;;;;;4160348;28;20041;-67
2021/12/29 06:49:48;;;;;;;13.90;9.75;;;9.70;99.90;;;;;;4163230;28;20033;-67
2021/12/29 06:51:50;;;;;;;14.88;9.57;;;9.70;99.90;;;;;;4162328;28;20045;-67
2021/12/29 06:53:50;;;;;;;14.15;9.23;;;9.70;99.90;;;;;;4160785;28;20037;-67
2021/12/29 06:55:51;;;;;;;14.07;11.15;;;9.70;99.90;;;;;;4162931;28;20037;-68
2021/12/29 06:57:52;;;;;;;12.60;10.35;;;9.70;99.90;;;;;;4163846;28;20056;-67
2021/12/29 06:59:53;;;;;;;14.75;10.35;;;9.70;99.90;;;;;;4163473;28;20091;-69
2021/12/29 07:01:54;;;;;;;13.77;10.38;;;9.70;99.90;;;;;;4162672;28;20468;-67
2021/12/29 07:03:55;;;;;;;14.77;10.80;;;9.70;99.90;;;;;;4165355;28;20128;-67
2021/12/29 07:05:55;;;;;;;15.02;10.20;;;9.70;99.90;;;;;;4160389;28;20385;-67
2021/12/29 07:07:57;;;;;;;12.15;9.43;;;9.70;99.90;;;;;;4160288;28;20057;-67
2021/12/29 07:09:57;;;;;;;15.55;10.57;;;9.70;99.90;;;;;;4162715;28;20069;-67
2021/12/29 07:11:58;;;;;;;12.85;9.93;;;9.70;99.90;;;;;;4162438;28;20116;-68
2021/12/29 07:14:02;;;;;;;11.35;9.13;;;9.70;99.90;;;;;;4162934;28;20397;-67
2021/12/29 07:16:03;;;;;;;16.33;9.75;;;9.70;99.90;;;;;;4161400;28;20401;-68
2021/12/29 07:18:04;;;;;;;14.00;10.30;;;9.70;99.90;;;;;;4161518;28;20052;-68
2021/12/29 07:20:05;;;;;;;14.35;9.73;;;9.60;99.90;;;;;;4154156;28;20492;-68
2021/12/29 07:22:06;;;;;;;14.27;10.23;;;9.70;99.90;;;;;;4149118;28;20045;-68
2021/12/29 07:24:07;;;;;;;14.52;10.13;;;9.70;99.90;;;;;;4151067;28;20669;-68
2021/12/29 07:26:08;;;;;;;14.25;10.25;;;9.70;99.90;;;;;;4152764;28;20049;-68
2021/12/29 07:28:09;;;;;;;14.43;10.68;;;9.70;99.90;;;;;;4150814;28;20986;-68
2021/12/29 07:30:11;;;;;;;13.00;9.40;;;9.70;99.90;;;;;;4152328;28;20041;-70
2021/12/29 07:32:11;;;;;;;11.95;8.85;;;9.70;99.90;;;;;;4162237;28;20025;-69
2021/12/29 07:34:12;;;;;;;12.88;9.90;;;9.70;99.90;;;;;;4162925;28;20046;-69
2021/12/29 07:36:13;;;;;;;12.55;8.80;;;9.70;99.90;;;;;;4162704;28;20033;-68
2021/12/29 07:38:13;;;;;;;11.85;9.13;;;9.70;99.90;;;;;;4160816;28;20049;-68
2021/12/29 07:40:14;;;;;;;14.32;10.23;;;9.70;99.90;;;;;;4162647;28;20049;-68
2021/12/29 07:42:15;;;;;;;12.65;8.70;;;9.70;99.90;;;;;;4161360;28;20050;-69
2021/12/29 07:44:17;;;;;;;13.50;9.95;;;9.70;99.90;;;;;;4161895;28;20434;-69
2021/12/29 07:46:18;;;;;;;13.50;9.60;;;9.70;99.90;;;;;;4158434;28;20496;-69
2021/12/29 07:48:24;;;;;;;13.50;9.88;;;9.70;99.90;;;;;;4161887;28;20128;-69
2021/12/29 07:50:25;;;;;;;14.35;10.30;;;9.70;99.90;;;;;;4160905;28;20041;-69
2021/12/29 07:52:26;;;;;;;14.68;10.20;;;9.70;99.90;;;;;;4161293;28;20064;-69
2021/12/29 07:54:26;;;;;;;14.57;9.82;;;9.70;99.90;;;;;;4165081;28;20072;-69
2021/12/29 07:56:27;;;;;;;16.95;10.63;;;9.70;99.90;;;;;;4159418;28;20098;-68
2021/12/29 07:58:28;;;;;;;11.40;9.13;;;9.70;99.90;;;;;;4163941;28;20033;-69
2021/12/29 08:00:28;;;;;;;16.83;10.95;;;9.70;99.90;;;;;;4151056;28;20077;-68
2021/12/29 08:02:29;;;;;;;16.00;10.50;;;9.70;99.90;;;;;;4162264;28;20125;-69
2021/12/29 08:04:30;;;;;;;13.68;9.23;;;9.60;99.90;;;;;;4161898;28;20056;-66
2021/12/29 08:06:30;;;;;;;19.00;11.02;;;9.70;99.90;;;;;;4164458;28;20084;-69
2021/12/29 08:08:31;;;;;;;13.57;9.70;;;9.70;99.90;;;;;;4164869;28;20056;-69
2021/12/29 08:10:35;;;;;;;16.35;9.13;;;9.70;99.90;;;;;;4163514;28;20045;-69
2021/12/29 08:12:36;;;;;;;16.67;10.60;;;9.70;99.90;;;;;;4164991;28;20033;-69
2021/12/29 08:14:37;;;;;;;15.32;10.32;;;9.70;99.90;;;;;;4166581;28;20044;-68
2021/12/29 08:16:37;;;;;;;15.20;10.77;;;9.70;99.90;;;;;;4167839;28;20105;-68
2021/12/29 08:18:38;;;;;;;12.95;10.38;;;9.70;99.90;;;;;;4167286;28;20038;-69
2021/12/29 08:20:39;;;;;;;11.95;9.07;;;9.70;99.90;;;;;;4163253;28;20034;-69
2021/12/29 08:22:40;;;;;;;15.70;9.77;;;9.80;99.90;;;;;;4162961;28;20100;-67
2021/12/29 08:24:40;;;;;;;15.35;10.18;;;9.70;99.90;;;;;;4164073;28;20120;-67
2021/12/29 08:26:41;;;;;;;13.35;9.52;;;9.80;99.90;;;;;;4163050;28;20029;-68
2021/12/29 08:28:43;;;;;;;14.50;9.73;;;9.80;99.90;;;;;;4162457;28;20112;-68
2021/12/29 08:30:44;;;;;;;11.68;9.35;;;9.80;99.90;;;;;;4162175;28;20038;-68
2021/12/29 08:32:45;;;;;;;14.88;9.45;;;9.80;99.90;;;;;;4162922;28;20151;-67
2021/12/29 08:34:45;;;;;;;12.55;9.15;;;9.80;99.90;;;;;;4163448;28;20091;-68
2021/12/29 08:36:46;;;;;;;14.57;9.43;;;9.80;99.90;;;;;;4162804;28;20057;-68
2021/12/29 08:38:47;;;;;;;9.30;7.95;;;9.80;99.90;;;;;;4150313;28;20036;-68
2021/12/29 08:40:48;;;;;;;13.20;8.80;;;9.80;99.90;;;;;;4163413;28;20033;-68
2021/12/29 08:42:49;;;;;;;13.07;8.48;;;9.80;99.90;;;;;;4162427;28;20068;-68
2021/12/29 08:44:50;;;;;;;9.68;7.32;;;9.80;99.90;;;;;;4166112;28;20049;-68
2021/12/29 08:46:51;;;;;;;12.30;8.00;;;9.80;99.90;;;;;;4163448;28;21546;-67
2021/12/29 08:48:51;;;;;;;10.43;7.63;;;9.90;99.90;;;;;;4161166;28;20445;-68
2021/12/29 08:50:52;;;;;;;10.35;7.55;;;9.90;99.90;;;;;;4162846;28;20124;-68
2021/12/29 08:52:53;;;;;;;10.52;6.97;;;9.80;99.90;;;;;;4165000;28;20044;-68
2021/12/29 08:54:53;;;;;;;11.93;7.43;;;9.90;99.90;;;;;;4164688;28;20041;-68
2021/12/29 08:56:54;;;;;;;11.38;7.38;;;9.90;99.90;;;;;;4163997;28;20030;-67
2021/12/29 08:58:55;;;;;;;12.63;6.80;;;9.90;99.90;;;;;;4162907;28;20491;-68
2021/12/29 09:00:58;;;;;;;11.02;7.22;;;9.90;99.90;;;;;;4164740;28;20034;-68
2021/12/29 09:02:58;;;;;;;10.98;7.95;;;9.90;99.90;;;;;;4167001;28;20156;-68
2021/12/29 09:04:59;;;;;;;11.85;7.05;;;9.90;99.90;;;;;;4164593;28;20042;-68
2021/12/29 09:07:00;;;;;;;10.13;6.00;;;9.90;99.90;;;;;;4164021;28;20112;-68
2021/12/29 09:09:02;;;;;;;9.20;6.38;;;9.90;99.90;;;;;;4164233;28;20030;-68
2021/12/29 09:11:03;;;;;;;10.05;6.63;;;9.90;99.90;;;;;;4166208;28;20038;-68
2021/12/29 09:13:04;;;;;;;9.65;6.45;;;9.90;99.90;;;;;;4167035;28;20041;-68
2021/12/29 09:15:06;;;;;;;8.52;5.82;;;9.90;99.90;;;;;;4166387;28;20461;-68
2021/12/29 09:17:07;;;;;;;9.30;6.50;;;9.90;99.90;;;;;;4162455;28;20045;-68
2021/12/29 09:19:11;;;;;;;8.50;6.18;;;9.90;99.90;;;;;;4162292;28;20033;-68
2021/12/29 09:21:15;;;;;;;11.82;6.80;;;9.90;99.90;;;;;;4165735;28;20465;-68
2021/12/29 09:23:16;;;;;;;8.00;6.32;;;9.90;99.90;;;;;;4165630;28;20046;-67
2021/12/29 09:25:18;;;;;;;10.32;6.72;;;9.90;99.90;;;;;;4162936;28;20038;-68
2021/12/29 09:27:19;;;;;;;11.77;6.65;;;9.90;99.90;;;;;;4163458;28;20083;-68
2021/12/29 09:29:20;;;;;;;8.40;5.70;;;9.90;99.90;;;;;;4165759;28;20041;-68
2021/12/29 09:31:21;;;;;;;7.75;5.43;;;10.00;99.90;;;;;;4162185;28;20459;-68
2021/12/29 09:33:22;;;;;;;9.65;6.05;;;9.90;99.90;;;;;;4165186;28;20044;-68
2021/12/29 09:35:23;;;;;;;7.72;5.15;;;10.00;99.90;;;;;;4164388;28;20083;-68
2021/12/29 09:37:24;;;;;;;8.07;5.85;;;10.00;99.90;;;;;;4164333;28;20041;-68
2021/12/29 09:39:25;;;;;;;8.75;5.75;;;10.00;99.90;;;;;;4166808;28;20072;-68
2021/12/29 09:41:26;;;;;;;10.43;5.80;;;10.00;99.90;;;;;;4166573;28;20036;-67
2021/12/29 09:43:27;;;;;;;7.97;5.03;;;10.00;99.90;;;;;;4166592;28;20400;-68
2021/12/29 09:45:28;;;;;;;7.32;5.40;;;10.00;99.90;;;;;;4167393;28;20037;-68
2021/12/29 09:47:28;;;;;;;8.73;5.20;;;10.00;99.90;;;;;;4165530;28;20037;-68
2021/12/29 09:49:37;;;;;;;9.90;5.38;;;10.00;99.90;;;;;;4165723;28;20037;-68
2021/12/29 09:51:38;;;;;;;9.95;5.22;;;10.00;99.90;;;;;;4166714;28;20045;-68
2021/12/29 09:53:40;;;;;;;7.03;4.78;;;10.00;99.90;;;;;;4164139;28;20709;-68
2021/12/29 09:55:41;;;;;;;9.13;4.70;;;10.10;99.90;;;;;;4162148;28;20040;-68
2021/12/29 09:57:45;;;;;;;8.40;5.40;;;10.00;99.90;;;;;;4156482;28;20618;-68
2021/12/29 09:59:49;;;;;;;7.65;5.68;;;10.00;99.90;;;;;;4172244;28;20026;-68
2021/12/29 10:01:50;;;;;;;9.27;4.55;;;10.00;99.90;;;;;;4163916;28;20506;-69
2021/12/29 10:03:53;;;;;;;8.27;4.90;;;10.00;99.90;;;;;;4155017;28;20046;-68
2021/12/29 10:05:58;;;;;;;7.05;4.78;;;10.10;99.90;;;;;;4166247;28;20038;-69
2021/12/29 10:08:26;;;;;;;12.60;5.60;;;10.00;99.90;;;;;;4153482;28;20041;-68
2021/12/29 10:10:28;;;;;;;11.38;5.32;;;10.10;99.90;;;;;;4156726;28;20153;-69
2021/12/29 10:12:28;;;;;;;6.50;4.57;;;10.00;99.90;;;;;;4168569;28;20065;-68
2021/12/29 10:14:33;;;;;;;7.38;4.45;;;10.00;99.90;;;;;;4165041;28;20029;-68
2021/12/29 10:16:34;;;;;;;8.82;5.40;;;10.10;99.90;;;;;;4156121;28;20040;-68
2021/12/29 10:18:41;;;;;;;8.70;5.40;;;10.10;99.90;;;;;;4168044;28;20439;-67
2021/12/29 10:21:01;;;;;;;7.78;4.78;;;10.10;99.90;;;;;;4165712;28;20075;-67
2021/12/29 10:23:02;;;;;;;8.25;5.07;;;10.10;99.90;;;;;;4145644;28;20037;-67
2021/12/29 10:25:13;;;;;;;8.60;4.10;;;10.10;99.90;;;;;;4166740;28;20168;-68
2021/12/29 10:27:19;;;;;;;10.82;4.88;;;10.20;99.90;;;;;;4165375;28;20049;-67
2021/12/29 10:29:21;;;;;;;7.50;4.40;;;10.20;99.90;;;;;;4163564;28;20496;-67
2021/12/29 10:31:25;;;;;;;7.78;4.60;;;10.20;99.90;;;;;;4168654;28;20067;-67
2021/12/29 10:33:44;;;;;;;6.35;4.20;;;10.20;99.90;;;;;;4170291;28;20048;-68
2021/12/29 10:35:45;;;;;;;7.50;4.53;;;10.20;99.90;;;;;;4171939;28;20063;-68
2021/12/29 10:37:45;;;;;;;5.78;3.92;;;10.20;99.90;;;;;;4171851;28;20473;-68
2021/12/29 10:39:49;;;;;;;6.80;4.80;;;10.30;99.90;;;;;;4175156;28;20049;-68
2021/12/29 10:41:56;;;;;;;4.80;3.67;;;10.20;99.90;;;;;;4160525;28;20038;-68
2021/12/29 10:44:03;;;;;;;6.68;4.50;;;10.30;99.90;;;;;;4178503;28;20041;-68